Time;durP1;ratioP1;P1;durP2;ratioP2;P2;SDS_P1;SDS_P2;PMS_P1;PMS_P2;Temp;Humidity;BMP_temperature;BMP_pressure;BME280_temperature;BME280_humidity;BME280_pressure;Samples;Min_cycle;Max_cycle;Signal;HPM_P1;HPM_P2
2022/12/31 00:06:57;;;;;;;11.00;6.50;;;;;;;10.20;100.00;100855.03;31432803;28;20049;-73
2022/12/31 00:21:59;;;;;;;15.97;7.13;;;;;;;10.03;100.00;100849.69;31405910;28;20049;-73
2022/12/31 00:37:00;;;;;;;19.87;7.07;;;;;;;9.99;100.00;100835.34;31417618;28;20060;-76
2022/12/31 00:52:03;;;;;;;14.70;7.27;;;;;;;10.00;100.00;100853.19;31381540;28;20099;-77
2022/12/31 01:07:05;;;;;;;25.40;10.33;;;;;;;9.91;100.00;100853.63;31396350;28;20048;-77
2022/12/31 01:22:07;;;;;;;19.83;10.17;;;;;;;9.84;100.00;100865.28;31408209;28;20109;-76
2022/12/31 01:37:09;;;;;;;26.97;10.90;;;;;;;9.82;100.00;100893.94;31378103;28;21287;-75
2022/12/31 01:52:13;;;;;;;24.27;9.97;;;;;;;9.95;100.00;100924.09;31410643;28;20079;-76
2022/12/31 02:07:15;;;;;;;20.07;10.13;;;;;;;9.80;100.00;100953.22;31378038;28;20591;-76
2022/12/31 02:22:41;;;;;;;29.53;11.60;;;;;;;9.68;100.00;100954.44;31414888;28;20057;-75
2022/12/31 02:37:48;;;;;;;30.77;12.93;;;;;;;9.46;100.00;100971.88;31410363;28;20254;-74
2022/12/31 02:52:53;;;;;;;25.10;12.13;;;;;;;9.26;100.00;100976.94;31376802;28;20068;-75
2022/12/31 03:07:55;;;;;;;26.17;12.17;;;;;;;8.74;100.00;100995.44;31318012;28;20487;-74
2022/12/31 03:22:57;;;;;;;29.67;12.17;;;;;;;8.55;100.00;101015.50;31347312;28;20102;-74
2022/12/31 03:37:59;;;;;;;29.03;11.93;;;;;;;8.06;100.00;101031.50;31387176;28;20490;-75
2022/12/31 03:53:01;;;;;;;29.63;12.13;;;;;;;8.03;100.00;101048.50;31355191;28;20048;-75
2022/12/31 04:08:03;;;;;;;27.63;11.50;;;;;;;7.82;100.00;101055.31;31401006;28;20111;-73
2022/12/31 04:23:05;;;;;;;29.83;11.57;;;;;;;7.45;100.00;101089.78;31420740;28;20049;-73
2022/12/31 04:38:07;;;;;;;27.40;12.03;;;;;;;7.60;100.00;101104.94;31424429;28;20056;-72
2022/12/31 04:53:09;;;;;;;37.13;13.83;;;;;;;7.44;100.00;101115.22;31427260;28;20069;-73
2022/12/31 05:08:12;;;;;;;50.63;20.60;;;;;;;7.37;100.00;101128.66;31395954;28;20048;-71
2022/12/31 05:23:15;;;;;;;37.13;14.43;;;;;;;7.31;100.00;101122.06;31439704;28;20045;-74
2022/12/31 05:38:17;;;;;;;37.43;14.60;;;;;;;7.20;100.00;101127.34;31434155;28;20685;-75
2022/12/31 05:53:19;;;;;;;37.70;14.97;;;;;;;7.16;100.00;101181.31;31411917;28;20146;-73
2022/12/31 06:08:22;;;;;;;52.73;14.43;;;;;;;7.42;100.00;101209.38;31414843;28;20102;-75
2022/12/31 06:23:24;;;;;;;35.67;14.40;;;;;;;7.24;100.00;101247.00;31420630;28;20052;-72
2022/12/31 06:38:28;;;;;;;42.03;14.23;;;;;;;7.31;100.00;101251.72;31397116;28;20115;-74
2022/12/31 06:53:31;;;;;;;32.27;14.10;;;;;;;7.37;100.00;101261.03;31429246;28;20692;-72
2022/12/31 07:08:43;;;;;;;42.30;18.43;;;;;;;7.48;100.00;101284.34;31408231;28;20434;-73
2022/12/31 07:23:45;;;;;;;31.17;12.10;;;;;;;7.18;100.00;101303.25;31420217;28;20278;-72
2022/12/31 07:38:55;;;;;;;35.80;12.77;;;;;;;7.31;100.00;101321.94;31430182;28;20639;-73
2022/12/31 07:53:57;;;;;;;29.20;12.33;;;;;;;7.18;100.00;101330.25;31370303;28;20122;-72
2022/12/31 08:09:24;;;;;;;30.27;12.83;;;;;;;7.71;100.00;101329.38;31337351;28;20106;-73
2022/12/31 08:24:41;;;;;;;33.53;11.93;;;;;;;7.82;100.00;101341.84;31342334;28;20049;-73
2022/12/31 08:40:14;;;;;;;31.30;13.37;;;;;;;7.82;100.00;101331.03;31340635;28;20100;-73
2022/12/31 08:55:18;;;;;;;37.13;14.03;;;;;;;7.87;100.00;101328.00;31383136;28;20103;-73
2022/12/31 09:10:30;;;;;;;34.97;15.40;;;;;;;8.07;100.00;101327.81;31347496;28;20107;-74
2022/12/31 09:25:32;;;;;;;35.23;14.73;;;;;;;8.14;100.00;101309.75;31402303;28;20481;-72
2022/12/31 09:41:04;;;;;;;36.60;15.17;;;;;;;8.21;100.00;101299.00;31354248;28;20513;-72
2022/12/31 09:56:28;;;;;;;34.47;15.30;;;;;;;8.22;100.00;101305.19;31343261;28;20056;-73
2022/12/31 10:11:36;;;;;;;61.97;25.13;;;;;;;8.12;100.00;101312.03;31391614;28;20053;-74
2022/12/31 10:26:38;;;;;;;31.50;13.77;;;;;;;8.34;100.00;101315.75;31399853;28;20114;-74
2022/12/31 10:41:47;;;;;;;34.40;14.53;;;;;;;8.37;100.00;101319.63;31347739;28;20091;-74
2022/12/31 10:57:10;;;;;;;32.87;14.37;;;;;;;8.47;100.00;101311.63;31394215;28;20057;-73
2022/12/31 11:12:33;;;;;;;29.00;12.67;;;;;;;8.51;100.00;101307.00;31353407;28;20556;-74
2022/12/31 11:28:01;;;;;;;29.83;12.27;;;;;;;8.49;100.00;101309.31;31321032;28;20639;-76
2022/12/31 11:43:25;;;;;;;33.37;13.77;;;;;;;8.06;100.00;101315.44;31320288;28;20045;-76
2022/12/31 11:58:28;;;;;;;39.30;14.00;;;;;;;8.20;100.00;101334.53;31338200;28;20056;-76
2022/12/31 12:13:30;;;;;;;32.30;13.67;;;;;;;7.98;100.00;101340.88;31383333;28;20049;-76
2022/12/31 12:28:44;;;;;;;36.27;12.97;;;;;;;8.09;100.00;101344.47;31444442;28;20169;-77
2022/12/31 12:43:46;;;;;;;24.00;11.00;;;;;;;7.83;100.00;101340.72;31376108;28;20106;-75
2022/12/31 12:58:57;;;;;;;35.47;13.73;;;;;;;7.71;100.00;101359.88;31339602;28;20048;-76
2022/12/31 13:14:23;;;;;;;47.53;13.23;;;;;;;7.77;100.00;101373.88;31353516;28;20074;-74
2022/12/31 13:29:30;;;;;;;45.00;13.00;;;;;;;7.64;100.00;101383.34;31391710;28;20052;-78
2022/12/31 13:44:39;;;;;;;28.80;11.87;;;;;;;7.60;100.00;101379.81;31388246;28;20060;-77
2022/12/31 13:59:49;;;;;;;29.23;10.87;;;;;;;7.51;100.00;101388.22;31416393;28;20053;-77
2022/12/31 14:14:54;;;;;;;25.90;10.43;;;;;;;7.42;100.00;101414.69;31338432;28;20107;-76
2022/12/31 14:30:04;;;;;;;33.63;11.77;;;;;;;7.26;100.00;101422.97;31376188;28;20053;-74
2022/12/31 14:45:26;;;;;;;34.20;11.33;;;;;;;7.20;100.00;101435.22;31379057;28;20422;-77
2022/12/31 15:00:55;;;;;;;21.13;10.57;;;;;;;7.00;100.00;101431.81;31366199;28;20562;-76
2022/12/31 15:16:12;;;;;;;40.10;12.67;;;;;;;6.90;100.00;101432.44;31249882;28;20179;-76
2022/12/31 15:31:15;;;;;;;29.53;12.10;;;;;;;6.74;100.00;101450.66;31334872;28;20080;-76
2022/12/31 15:46:25;;;;;;;24.40;10.70;;;;;;;6.72;100.00;101448.31;31295212;28;20058;-76
2022/12/31 16:01:35;;;;;;;64.10;15.37;;;;;;;6.73;100.00;101454.50;31378472;28;20498;-76
2022/12/31 16:16:37;;;;;;;63.70;18.90;;;;;;;6.56;100.00;101446.88;31356200;28;20445;-76
2022/12/31 16:31:42;;;;;;;63.30;14.57;;;;;;;6.06;100.00;101448.63;31378136;28;20045;-82
2022/12/31 16:46:53;;;;;;;114.20;12.30;;;;;;;5.46;100.00;101438.06;31406988;28;20056;-86
2022/12/31 17:02:00;;;;;;;37.03;11.47;;;;;;;5.37;100.00;101442.09;31411033;28;20080;-76
2022/12/31 17:17:07;;;;;;;21.07;8.23;;;;;;;5.56;100.00;101461.00;31383719;28;20429;-75
2022/12/31 17:32:18;;;;;;;41.63;10.53;;;;;;;5.48;100.00;101460.06;31350620;28;20111;-75
2022/12/31 17:47:20;;;;;;;81.07;12.53;;;;;;;5.28;100.00;101469.22;31362623;28;20134;-84
2022/12/31 18:02:22;;;;;;;44.77;9.47;;;;;;;5.23;100.00;101474.06;31367143;28;20106;-74
2022/12/31 18:17:24;;;;;;;41.63;10.90;;;;;;;5.14;100.00;101464.28;31368997;28;20444;-76
2022/12/31 18:32:30;;;;;;;34.30;9.80;;;;;;;4.42;100.00;101478.94;31358041;28;20048;-74
2022/12/31 18:47:32;;;;;;;14.40;7.78;;;;;;;4.14;100.00;101481.63;31375648;28;20150;-75
2022/12/31 19:02:38;;;;;;;21.35;7.30;;;;;;;4.12;100.00;101467.72;31356538;28;20068;-78
2022/12/31 19:17:40;;;;;;;43.40;12.07;;;;;;;3.85;100.00;101446.97;31359648;28;20889;-77
2022/12/31 19:32:42;;;;;;;15.27;7.73;;;;;;;4.10;100.00;101475.34;31368140;28;20114;-76
2022/12/31 19:47:45;;;;;;;51.77;7.53;;;;;;;4.66;100.00;101453.84;31380627;28;20104;-77
2022/12/31 20:02:48;;;;;;;53.07;7.40;;;;;;;4.60;100.00;101441.75;31350410;28;20106;-76
2022/12/31 20:17:51;;;;;;;22.23;5.53;;;;;;;4.83;100.00;101437.34;31359949;28;20045;-82
2022/12/31 20:32:54;;;;;;;14.93;6.60;;;;;;;4.74;100.00;101439.41;31354080;28;20548;-74
2022/12/31 20:47:56;;;;;;;17.80;6.87;;;;;;;5.01;100.00;101460.09;31358257;28;20052;-77
2022/12/31 21:02:58;;;;;;;90.80;11.17;;;;;;;4.76;100.00;101448.72;31405631;28;20048;-78
2022/12/31 21:18:22;;;;;;;37.33;7.70;;;;;;;4.76;100.00;101459.47;31439954;28;20049;-74
2022/12/31 21:33:24;;;;;;;29.33;6.30;;;;;;;4.80;100.00;101460.34;31377064;28;20048;-76
2022/12/31 21:48:26;;;;;;;31.40;6.03;;;;;;;4.74;100.00;101434.03;31395346;28;20095;-77
2022/12/31 22:03:28;;;;;;;33.13;6.33;;;;;;;4.64;100.00;101402.28;31397787;28;20135;-76
2022/12/31 22:18:33;;;;;;;25.27;6.77;;;;;;;4.41;100.00;101388.66;31436159;28;20052;-76
2022/12/31 22:33:35;;;;;;;19.97;6.50;;;;;;;4.45;100.00;101411.81;31418007;28;20052;-77
2022/12/31 22:48:37;;;;;;;17.57;7.80;;;;;;;4.69;100.00;101410.09;31364347;28;20049;-75
2022/12/31 23:03:41;;;;;;;50.30;12.43;;;;;;;4.78;100.00;101411.50;31374688;28;20049;-76
2022/12/31 23:34:07;;;;;;;27.67;6.60;;;;;;;4.61;100.00;101382.25;31372554;28;20131;-74
2022/12/31 23:49:10;;;;;;;24.00;8.37;;;;;;;4.55;100.00;101398.97;31361455;28;20049;-74
